Time;durP1;ratioP1;P1;durP2;ratioP2;P2;SDS_P1;SDS_P2;PMS_P1;PMS_P2;Temp;Humidity;BMP_temperature;BMP_pressure;BME280_temperature;BME280_humidity;BME280_pressure;Samples;Min_cycle;Max_cycle;Signal;HPM_P1;HPM_P2
2022/12/23 00:01:51;;;;;;;1.00;0.30;;;9.90;99.90;;;;;;5076294;28;20466;-62
2022/12/23 00:04:18;;;;;;;0.68;0.20;;;9.90;99.90;;;;;;5074491;28;20502;-62
2022/12/23 00:06:45;;;;;;;0.40;0.20;;;9.90;99.90;;;;;;5075649;28;20529;-61
2022/12/23 00:09:12;;;;;;;0.73;0.20;;;9.90;99.90;;;;;;5074290;28;20451;-61
2022/12/23 00:15:04;;;;;;;0.60;0.20;;;9.80;99.90;;;;;;5074201;28;20427;-61
2022/12/23 00:17:13;;;;;;;0.60;0.30;;;9.80;99.90;;;;;;5074853;28;20450;-61
2022/12/23 00:19:41;;;;;;;0.70;0.20;;;9.80;99.90;;;;;;5075751;28;20909;-62
2022/12/23 00:22:08;;;;;;;1.30;0.20;;;9.90;99.90;;;;;;5074810;28;20791;-61
2022/12/23 00:24:35;;;;;;;0.40;0.20;;;9.90;99.90;;;;;;5074806;28;20842;-61
2022/12/23 00:27:02;;;;;;;0.90;0.20;;;9.90;99.90;;;;;;5076017;28;20471;-61
2022/12/23 00:29:31;;;;;;;0.60;0.20;;;9.90;99.90;;;;;;5074358;28;20484;-61
2022/12/23 00:31:58;;;;;;;1.15;0.20;;;9.80;99.90;;;;;;5074832;28;20909;-61
2022/12/23 00:34:25;;;;;;;0.50;0.20;;;9.90;99.90;;;;;;5075159;28;20785;-62
2022/12/23 00:36:53;;;;;;;0.50;0.20;;;9.80;99.90;;;;;;5074561;28;20462;-61
2022/12/23 00:44:51;;;;;;;0.60;0.28;;;9.80;99.90;;;;;;5074356;28;20442;-61
2022/12/23 00:49:59;;;;;;;0.95;0.30;;;9.90;99.90;;;;;;5074592;28;20496;-61
2022/12/23 00:52:27;;;;;;;0.40;0.20;;;9.90;99.90;;;;;;5075853;28;20823;-62
2022/12/23 00:54:54;;;;;;;0.90;0.20;;;9.90;99.90;;;;;;5075367;28;20434;-62
2022/12/23 00:57:21;;;;;;;0.50;0.20;;;9.90;99.90;;;;;;5075644;28;20459;-62
2022/12/23 00:59:50;;;;;;;0.47;0.20;;;9.90;99.90;;;;;;5074128;28;20458;-62
2022/12/23 01:07:49;;;;;;;0.60;0.20;;;9.90;99.90;;;;;;5075268;28;20502;-62
2022/12/23 01:10:16;;;;;;;0.40;0.20;;;10.00;99.90;;;;;;5075035;28;20491;-62
2022/12/23 01:12:44;;;;;;;1.10;0.20;;;10.00;99.90;;;;;;5075920;28;20459;-62
2022/12/23 01:15:12;;;;;;;0.30;0.10;;;10.00;99.90;;;;;;5074014;28;20455;-62
2022/12/23 01:17:40;;;;;;;0.35;0.20;;;10.10;99.90;;;;;;5075166;28;20862;-62
2022/12/23 01:20:08;;;;;;;0.40;0.20;;;10.10;99.90;;;;;;5074822;28;20503;-62
2022/12/23 01:22:35;;;;;;;0.70;0.20;;;10.10;99.90;;;;;;5075393;28;20463;-62
2022/12/23 01:25:03;;;;;;;0.40;0.17;;;10.10;99.90;;;;;;5075380;28;20455;-62
2022/12/23 01:27:30;;;;;;;0.70;0.10;;;10.10;99.90;;;;;;5074576;28;20439;-62
2022/12/23 01:29:57;;;;;;;0.50;0.20;;;10.20;99.90;;;;;;5075033;28;20516;-62
2022/12/23 01:32:26;;;;;;;0.30;0.10;;;10.20;99.90;;;;;;5074919;28;20890;-62
2022/12/23 01:34:53;;;;;;;1.30;0.20;;;10.20;99.90;;;;;;5074558;28;20420;-62
2022/12/23 01:37:21;;;;;;;0.40;0.20;;;10.20;99.90;;;;;;5074646;28;20787;-61
2022/12/23 01:39:48;;;;;;;0.40;0.20;;;10.20;99.90;;;;;;5074842;28;20439;-61
2022/12/23 01:45:04;;;;;;;0.40;0.10;;;10.20;99.90;;;;;;5074922;28;20711;-62
2022/12/23 01:47:39;;;;;;;0.50;0.17;;;10.20;99.90;;;;;;5073659;28;20471;-62
2022/12/23 01:50:10;;;;;;;0.68;0.20;;;10.30;99.90;;;;;;5073185;28;20448;-62
2022/12/23 01:52:43;;;;;;;0.50;0.15;;;10.30;99.90;;;;;;5071480;28;20944;-62
2022/12/23 01:55:11;;;;;;;0.70;0.20;;;10.30;99.90;;;;;;5072676;28;20510;-61
2022/12/23 01:57:41;;;;;;;0.40;0.10;;;10.30;99.90;;;;;;5072423;28;20509;-62
2022/12/23 02:05:42;;;;;;;0.40;0.10;;;10.40;99.90;;;;;;5074291;28;20406;-61
2022/12/23 02:11:19;;;;;;;0.50;0.10;;;10.40;99.90;;;;;;5074270;28;20402;-61
2022/12/23 02:16:39;;;;;;;0.35;0.17;;;10.40;99.90;;;;;;5073777;28;20403;-62
2022/12/23 02:19:14;;;;;;;0.30;0.20;;;10.50;99.90;;;;;;5073893;28;21083;-62
2022/12/23 02:22:08;;;;;;;0.40;0.10;;;10.50;99.90;;;;;;5074131;28;20427;-61
2022/12/23 02:25:02;;;;;;;0.30;0.10;;;10.50;99.90;;;;;;5074641;28;20457;-61
2022/12/23 02:27:32;;;;;;;0.38;0.10;;;10.50;99.90;;;;;;5074197;28;20526;-62
2022/12/23 02:30:23;;;;;;;0.30;0.10;;;10.50;99.90;;;;;;5074346;28;20878;-61
2022/12/23 02:33:18;;;;;;;0.38;0.20;;;10.50;99.90;;;;;;5073860;28;20458;-62
2022/12/23 02:35:55;;;;;;;0.80;0.10;;;10.50;99.90;;;;;;5074023;28;20845;-61
2022/12/23 02:38:29;;;;;;;0.30;0.10;;;10.60;99.90;;;;;;5073578;28;20513;-61
2022/12/23 02:41:04;;;;;;;0.30;0.10;;;10.60;99.90;;;;;;5074931;28;20494;-61
2022/12/23 02:43:41;;;;;;;0.40;0.10;;;10.60;99.90;;;;;;5073953;28;20801;-61
2022/12/23 02:46:13;;;;;;;0.30;0.10;;;10.70;99.90;;;;;;5073961;28;20460;-60
2022/12/23 02:48:47;;;;;;;0.30;0.10;;;10.60;99.90;;;;;;5073230;28;20518;-61
2022/12/23 02:51:16;;;;;;;0.30;0.10;;;10.60;99.90;;;;;;5074097;28;20458;-61
2022/12/23 02:53:49;;;;;;;0.30;0.10;;;10.70;99.90;;;;;;5073863;28;20458;-61
2022/12/23 02:56:18;;;;;;;0.30;0.10;;;10.70;99.90;;;;;;5074534;28;20448;-61
2022/12/23 02:58:51;;;;;;;0.40;0.10;;;10.70;99.90;;;;;;5073970;28;20436;-61
2022/12/23 03:01:19;;;;;;;0.30;0.10;;;10.70;99.90;;;;;;5074134;28;20473;-61
2022/12/23 03:03:49;;;;;;;0.60;0.10;;;10.80;99.90;;;;;;5073639;28;20424;-61
2022/12/23 03:06:21;;;;;;;0.30;0.10;;;10.80;99.90;;;;;;5073885;28;20424;-61
2022/12/23 03:08:52;;;;;;;0.30;0.10;;;10.80;99.90;;;;;;5074846;28;20522;-60
2022/12/23 03:11:20;;;;;;;0.30;0.10;;;10.80;99.90;;;;;;5074619;28;20429;-61
2022/12/23 03:14:08;;;;;;;0.60;0.10;;;10.80;99.90;;;;;;5057445;28;20418;-61
2022/12/23 03:16:46;;;;;;;0.50;0.10;;;10.80;99.90;;;;;;5077962;28;20525;-61
2022/12/23 03:19:23;;;;;;;0.40;0.10;;;10.80;99.90;;;;;;5077382;28;20423;-62
2022/12/23 03:21:58;;;;;;;0.80;0.10;;;10.80;99.90;;;;;;5076531;28;20490;-62
2022/12/23 03:24:39;;;;;;;0.30;0.10;;;10.80;99.90;;;;;;5074256;28;20527;-62
2022/12/23 03:27:11;;;;;;;0.50;0.10;;;10.80;99.90;;;;;;5075895;28;20473;-62
2022/12/23 03:29:44;;;;;;;0.30;0.10;;;10.80;99.90;;;;;;5075680;28;20506;-62
2022/12/23 03:32:13;;;;;;;0.30;0.10;;;10.90;99.90;;;;;;5075588;28;20513;-62
2022/12/23 03:34:45;;;;;;;0.30;0.10;;;10.90;99.90;;;;;;5075522;28;20503;-62
2022/12/23 03:37:15;;;;;;;0.70;0.10;;;10.80;99.90;;;;;;5076098;28;20497;-62
2022/12/23 03:39:47;;;;;;;0.30;0.10;;;10.90;99.90;;;;;;5076103;28;20419;-62
2022/12/23 03:42:19;;;;;;;0.50;0.17;;;10.80;99.90;;;;;;5076100;28;20923;-61
2022/12/23 03:44:50;;;;;;;0.40;0.10;;;10.80;99.90;;;;;;5075963;28;20506;-61
2022/12/23 03:47:24;;;;;;;0.40;0.10;;;10.90;99.90;;;;;;5075995;28;20799;-61
2022/12/23 03:49:55;;;;;;;1.10;0.20;;;10.80;99.90;;;;;;5075830;28;20525;-61
2022/12/23 03:52:29;;;;;;;0.50;0.30;;;10.80;99.90;;;;;;5076679;28;20918;-61
2022/12/23 03:54:59;;;;;;;0.40;0.10;;;10.80;99.90;;;;;;5076821;28;20455;-61
2022/12/23 03:57:31;;;;;;;1.10;0.20;;;10.80;99.90;;;;;;5076992;28;20930;-61
2022/12/23 03:59:58;;;;;;;0.40;0.10;;;10.80;99.90;;;;;;5076623;28;20455;-61
2022/12/23 04:02:34;;;;;;;0.32;0.10;;;10.80;99.90;;;;;;5076092;28;20428;-61
2022/12/23 04:05:18;;;;;;;0.30;0.10;;;10.70;99.90;;;;;;5076291;28;20723;-62
2022/12/23 04:07:51;;;;;;;0.30;0.10;;;10.70;99.90;;;;;;5076737;28;20522;-62
2022/12/23 04:10:21;;;;;;;0.70;0.20;;;10.70;99.90;;;;;;5076488;28;20510;-62
2022/12/23 04:12:49;;;;;;;0.30;0.10;;;10.70;99.90;;;;;;5076755;28;20530;-62
2022/12/23 04:15:21;;;;;;;0.30;0.10;;;10.70;99.90;;;;;;5076435;28;20470;-62
2022/12/23 04:17:49;;;;;;;0.30;0.10;;;10.70;99.90;;;;;;5076507;28;20423;-62
2022/12/23 04:20:18;;;;;;;0.40;0.10;;;10.70;99.90;;;;;;5074572;28;20495;-62
2022/12/23 04:22:45;;;;;;;0.30;0.10;;;10.60;99.90;;;;;;5075475;28;21050;-62
2022/12/23 04:25:13;;;;;;;0.30;0.10;;;10.60;99.90;;;;;;5074058;28;20858;-62
2022/12/23 04:27:41;;;;;;;0.30;0.10;;;10.70;99.90;;;;;;5075491;28;20534;-62
2022/12/23 04:30:10;;;;;;;0.37;0.10;;;10.70;99.90;;;;;;5076307;28;20782;-62
2022/12/23 04:32:38;;;;;;;0.30;0.10;;;10.90;99.90;;;;;;5074360;28;20455;-63
2022/12/23 04:35:06;;;;;;;0.30;0.10;;;10.90;99.90;;;;;;5074588;28;20450;-63
2022/12/23 04:37:34;;;;;;;0.30;0.10;;;11.00;99.90;;;;;;5075187;28;20851;-63
2022/12/23 04:40:02;;;;;;;0.40;0.10;;;11.00;99.90;;;;;;5075875;28;20874;-62
2022/12/23 04:42:29;;;;;;;0.30;0.10;;;11.10;99.90;;;;;;5075300;28;20455;-62
2022/12/23 04:44:56;;;;;;;0.30;0.10;;;11.10;99.90;;;;;;5076261;28;20706;-62
2022/12/23 04:47:24;;;;;;;0.45;0.10;;;11.10;99.90;;;;;;5067706;28;20455;-62
2022/12/23 04:49:51;;;;;;;0.30;0.10;;;11.10;99.90;;;;;;5075843;28;20486;-62
2022/12/23 04:52:18;;;;;;;0.30;0.10;;;11.20;99.90;;;;;;5075794;28;20471;-63
2022/12/23 04:54:47;;;;;;;0.30;0.10;;;11.20;99.90;;;;;;5075944;28;20816;-62
2022/12/23 04:57:15;;;;;;;0.30;0.10;;;11.20;99.90;;;;;;5075876;28;20452;-63
2022/12/23 04:59:42;;;;;;;0.30;0.10;;;11.20;99.90;;;;;;5075119;28;20451;-62
2022/12/23 05:02:09;;;;;;;0.30;0.10;;;11.20;99.90;;;;;;5075600;28;20455;-62
2022/12/23 05:04:37;;;;;;;0.30;0.10;;;11.20;99.90;;;;;;5075262;28;20463;-62
2022/12/23 05:07:04;;;;;;;0.30;0.20;;;11.10;99.90;;;;;;5075074;28;20462;-62
2022/12/23 05:09:31;;;;;;;0.30;0.10;;;11.10;99.90;;;;;;5074442;28;20463;-63
2022/12/23 05:12:00;;;;;;;0.60;0.20;;;11.10;99.90;;;;;;5073534;28;20451;-62
2022/12/23 05:14:27;;;;;;;0.30;0.10;;;11.10;99.90;;;;;;5074643;28;20906;-63
2022/12/23 05:16:55;;;;;;;0.50;0.10;;;11.10;99.90;;;;;;5075162;28;20482;-63
2022/12/23 05:19:22;;;;;;;0.30;0.10;;;11.10;99.90;;;;;;5073869;28;20873;-63
2022/12/23 05:21:49;;;;;;;0.30;0.10;;;11.10;99.90;;;;;;5075139;28;20423;-63
2022/12/23 05:24:16;;;;;;;0.30;0.10;;;11.10;99.90;;;;;;5072849;28;20443;-62
2022/12/23 05:26:46;;;;;;;0.30;0.10;;;11.10;99.90;;;;;;5073895;28;20459;-62
2022/12/23 05:29:15;;;;;;;0.30;0.10;;;11.20;99.90;;;;;;5072571;28;20873;-62
2022/12/23 05:31:42;;;;;;;0.40;0.10;;;11.20;99.90;;;;;;5072764;28;20489;-63
2022/12/23 05:34:10;;;;;;;0.40;0.20;;;11.10;99.90;;;;;;5072621;28;20805;-62
2022/12/23 05:36:37;;;;;;;0.50;0.20;;;11.10;99.90;;;;;;5073162;28;20471;-62
2022/12/23 05:39:04;;;;;;;0.40;0.40;;;11.10;99.90;;;;;;5074028;28;20471;-61
2022/12/23 05:41:31;;;;;;;0.70;0.10;;;11.10;99.90;;;;;;5074890;28;20924;-61
2022/12/23 05:43:59;;;;;;;0.30;0.20;;;11.10;99.90;;;;;;5074582;28;20506;-62
2022/12/23 05:46:27;;;;;;;0.30;0.10;;;11.10;99.90;;;;;;5074738;28;20750;-61
2022/12/23 05:48:55;;;;;;;0.30;0.10;;;11.10;99.90;;;;;;5073227;28;20518;-62
2022/12/23 05:51:22;;;;;;;0.35;0.10;;;11.10;99.90;;;;;;5072896;28;20564;-62
2022/12/23 05:53:49;;;;;;;0.30;0.20;;;11.10;99.90;;;;;;5072190;28;20558;-62
2022/12/23 05:56:16;;;;;;;0.30;0.10;;;11.10;99.90;;;;;;5071854;28;20794;-62
2022/12/23 05:58:44;;;;;;;0.32;0.10;;;11.10;99.90;;;;;;5073155;28;20416;-61
2022/12/23 06:01:11;;;;;;;0.40;0.10;;;11.10;99.90;;;;;;5073170;28;20416;-61
2022/12/23 06:03:40;;;;;;;0.30;0.10;;;11.00;99.90;;;;;;5073247;28;20458;-63
2022/12/23 06:06:08;;;;;;;0.70;0.20;;;11.10;99.90;;;;;;5072183;28;20771;-62
2022/12/23 06:08:35;;;;;;;0.30;0.10;;;11.10;99.90;;;;;;5073008;28;20544;-62
2022/12/23 06:11:05;;;;;;;0.30;0.10;;;11.10;99.90;;;;;;5071198;28;20480;-62
2022/12/23 06:13:32;;;;;;;0.30;0.10;;;11.10;99.90;;;;;;5071326;28;20724;-63
2022/12/23 06:15:59;;;;;;;0.40;0.20;;;11.10;99.90;;;;;;5071055;28;21038;-63
2022/12/23 06:18:27;;;;;;;0.40;0.20;;;11.00;99.90;;;;;;5069761;28;20886;-62
2022/12/23 06:20:55;;;;;;;0.40;0.20;;;11.00;99.90;;;;;;5069816;28;20455;-61
2022/12/23 06:23:22;;;;;;;0.40;0.20;;;11.10;99.90;;;;;;5061850;28;20494;-61
2022/12/23 06:25:50;;;;;;;0.90;0.20;;;11.00;99.90;;;;;;5070180;28;20517;-61
2022/12/23 06:28:17;;;;;;;0.40;0.20;;;11.00;99.90;;;;;;5069568;28;20534;-61
2022/12/23 06:30:44;;;;;;;0.50;0.20;;;10.90;99.90;;;;;;5069834;28;20420;-61
2022/12/23 06:33:11;;;;;;;0.70;0.20;;;10.90;99.90;;;;;;5071070;28;20477;-61
2022/12/23 06:35:38;;;;;;;0.47;0.20;;;10.90;99.90;;;;;;5071947;28;20462;-61
2022/12/23 06:38:07;;;;;;;0.40;0.20;;;10.90;99.90;;;;;;5072200;28;20455;-61
2022/12/23 06:40:34;;;;;;;0.40;0.20;;;10.90;99.90;;;;;;5071524;28;20420;-60
2022/12/23 06:43:02;;;;;;;0.50;0.20;;;10.90;99.90;;;;;;5073624;28;20514;-60
2022/12/23 06:45:29;;;;;;;0.70;0.20;;;10.90;99.90;;;;;;5078232;28;20419;-61
2022/12/23 06:47:56;;;;;;;0.60;0.20;;;10.90;99.90;;;;;;5076761;28;20510;-61
2022/12/23 06:50:23;;;;;;;1.80;0.85;;;10.90;99.90;;;;;;5067173;28;20416;-62
2022/12/23 06:52:51;;;;;;;0.70;0.40;;;10.90;99.90;;;;;;5076041;28;20481;-61
2022/12/23 06:55:19;;;;;;;0.60;0.40;;;10.90;99.90;;;;;;5077384;28;20427;-61
2022/12/23 06:57:46;;;;;;;0.60;0.40;;;10.90;99.90;;;;;;5077881;28;20812;-62
2022/12/23 07:00:15;;;;;;;0.60;0.32;;;10.90;99.90;;;;;;5075591;28;20489;-61
2022/12/23 07:02:42;;;;;;;0.60;0.40;;;10.90;99.90;;;;;;5065347;28;20937;-62
2022/12/23 07:05:13;;;;;;;0.60;0.40;;;10.90;99.90;;;;;;5060737;28;20449;-62
2022/12/23 07:07:40;;;;;;;0.60;0.40;;;10.90;99.90;;;;;;5063305;28;20462;-62
2022/12/23 07:10:09;;;;;;;1.42;0.40;;;10.90;99.90;;;;;;5075337;28;20435;-62
2022/12/23 07:12:38;;;;;;;1.27;0.50;;;10.80;99.90;;;;;;5070353;28;20501;-62
2022/12/23 07:15:09;;;;;;;2.00;0.50;;;10.80;99.90;;;;;;5073571;28;20506;-62
2022/12/23 07:17:37;;;;;;;0.73;0.40;;;10.80;99.90;;;;;;5068719;28;20869;-62
2022/12/23 07:20:05;;;;;;;0.70;0.40;;;10.80;99.90;;;;;;5071429;28;20496;-62
2022/12/23 07:22:33;;;;;;;0.70;0.40;;;10.80;99.90;;;;;;5075447;28;20455;-62
2022/12/23 07:25:00;;;;;;;0.70;0.40;;;10.80;99.90;;;;;;5071582;28;20502;-62
2022/12/23 07:27:27;;;;;;;0.77;0.40;;;10.80;99.90;;;;;;5073310;28;20427;-60
2022/12/23 07:29:56;;;;;;;1.10;0.30;;;10.80;99.90;;;;;;5072048;28;20538;-60
2022/12/23 07:32:23;;;;;;;0.52;0.30;;;10.90;99.90;;;;;;5076156;28;20431;-61
2022/12/23 07:34:50;;;;;;;0.60;0.40;;;10.90;99.90;;;;;;5073106;28;20681;-61
2022/12/23 07:37:18;;;;;;;1.30;0.40;;;11.00;99.90;;;;;;5072615;28;20514;-61
2022/12/23 07:39:45;;;;;;;0.80;0.40;;;11.00;99.90;;;;;;5071985;28;21145;-61
2022/12/23 07:42:12;;;;;;;0.90;0.40;;;11.00;99.90;;;;;;5071193;28;20431;-60
2022/12/23 07:44:40;;;;;;;1.27;0.50;;;11.00;99.90;;;;;;5073791;28;20742;-61
2022/12/23 07:47:08;;;;;;;1.80;0.37;;;11.10;99.90;;;;;;5073974;28;20712;-61
2022/12/23 07:49:36;;;;;;;0.65;0.35;;;11.10;99.90;;;;;;5073446;28;20518;-60
2022/12/23 07:52:03;;;;;;;0.77;0.35;;;11.10;99.90;;;;;;5056562;28;20818;-60
2022/12/23 07:54:30;;;;;;;1.30;0.40;;;11.20;99.90;;;;;;5072809;28;20498;-60
2022/12/23 07:56:57;;;;;;;0.88;0.40;;;11.30;99.90;;;;;;5074376;28;20478;-60
2022/12/23 07:59:26;;;;;;;2.67;0.50;;;11.30;99.90;;;;;;5073779;28;20874;-60
2022/12/23 08:01:53;;;;;;;1.40;0.50;;;11.30;99.90;;;;;;5073042;28;20782;-61
2022/12/23 08:04:22;;;;;;;2.10;0.50;;;11.20;99.90;;;;;;5073155;28;20511;-61
2022/12/23 08:06:49;;;;;;;0.90;0.50;;;11.20;99.90;;;;;;5074109;28;20573;-61
2022/12/23 08:09:16;;;;;;;0.50;0.30;;;11.20;99.90;;;;;;5074481;28;20826;-61
2022/12/23 08:11:44;;;;;;;0.50;0.20;;;11.20;99.90;;;;;;5075992;28;20529;-61
2022/12/23 08:14:12;;;;;;;0.70;0.30;;;11.20;99.90;;;;;;5070920;28;20884;-61
2022/12/23 08:16:39;;;;;;;0.50;0.30;;;11.30;99.90;;;;;;5074057;28;20522;-61
2022/12/23 08:19:06;;;;;;;0.50;0.30;;;11.30;99.90;;;;;;5074666;28;20454;-60
2022/12/23 08:21:35;;;;;;;0.50;0.20;;;11.30;99.90;;;;;;5073203;28;21011;-61
2022/12/23 08:24:02;;;;;;;0.40;0.20;;;11.40;99.90;;;;;;5055834;28;20685;-61
2022/12/23 08:26:29;;;;;;;0.40;0.30;;;11.40;99.90;;;;;;5074331;28;20515;-61
2022/12/23 08:28:57;;;;;;;0.40;0.20;;;11.40;99.90;;;;;;5073091;28;20811;-61
2022/12/23 08:31:25;;;;;;;0.50;0.20;;;11.40;99.90;;;;;;5073084;28;20553;-61
2022/12/23 08:33:54;;;;;;;0.60;0.20;;;11.50;99.90;;;;;;5072249;28;20498;-60
2022/12/23 08:36:24;;;;;;;0.50;0.30;;;11.50;99.90;;;;;;5073755;28;20534;-60
2022/12/23 08:38:55;;;;;;;1.00;0.80;;;11.50;99.90;;;;;;5074285;28;20440;-59
2022/12/23 08:41:24;;;;;;;0.65;0.30;;;11.50;99.90;;;;;;5074101;28;20511;-59
2022/12/23 08:43:51;;;;;;;0.50;0.30;;;11.50;99.90;;;;;;5071231;28;20510;-60
2022/12/23 08:46:19;;;;;;;0.90;0.30;;;11.50;99.90;;;;;;5073150;28;20423;-60
2022/12/23 08:48:46;;;;;;;13.40;10.55;;;11.50;99.90;;;;;;5073826;28;20506;-59
2022/12/23 08:51:16;;;;;;;1.43;0.80;;;11.50;99.90;;;;;;5073515;28;20428;-59
2022/12/23 08:53:43;;;;;;;0.80;0.47;;;11.50;99.90;;;;;;5078792;28;20421;-60
2022/12/23 08:56:14;;;;;;;0.50;0.30;;;11.50;99.90;;;;;;5074384;28;20423;-60
2022/12/23 08:58:44;;;;;;;0.50;0.30;;;11.50;99.90;;;;;;5073056;28;20447;-60
2022/12/23 09:01:13;;;;;;;0.50;0.30;;;11.60;99.90;;;;;;5072993;28;20473;-60
2022/12/23 09:03:41;;;;;;;0.83;0.30;;;11.60;99.90;;;;;;5067515;28;20829;-60
2022/12/23 09:06:11;;;;;;;1.17;0.47;;;11.60;99.90;;;;;;5071494;28;20500;-61
2022/12/23 09:08:39;;;;;;;0.70;0.30;;;11.60;99.90;;;;;;5071664;28;20420;-60
2022/12/23 09:11:08;;;;;;;0.40;0.20;;;11.60;99.90;;;;;;5069699;28;20495;-61
2022/12/23 09:13:37;;;;;;;0.60;0.25;;;11.60;99.90;;;;;;5072069;28;20450;-62
2022/12/23 09:16:05;;;;;;;0.60;0.20;;;11.60;99.90;;;;;;5055517;28;20490;-62
2022/12/23 09:18:33;;;;;;;1.25;0.30;;;11.60;99.90;;;;;;5070747;28;20680;-61
2022/12/23 09:21:01;;;;;;;0.50;0.30;;;11.60;99.90;;;;;;5072004;28;20497;-61
2022/12/23 09:23:32;;;;;;;0.85;0.30;;;11.60;99.90;;;;;;5069288;28;20590;-61
2022/12/23 09:25:59;;;;;;;0.60;0.30;;;11.70;99.90;;;;;;5072029;28;20428;-61
2022/12/23 09:28:27;;;;;;;1.10;0.40;;;11.70;99.90;;;;;;5073634;28;20467;-62
2022/12/23 09:30:55;;;;;;;0.60;0.30;;;11.70;99.90;;;;;;5071436;28;21009;-62
2022/12/23 09:33:23;;;;;;;0.93;0.40;;;11.60;99.90;;;;;;5072069;28;20427;-60
2022/12/23 09:35:50;;;;;;;1.00;0.40;;;11.60;99.90;;;;;;5071962;28;20511;-60
2022/12/23 09:38:17;;;;;;;0.88;0.50;;;11.60;99.90;;;;;;5071851;28;20463;-63
2022/12/23 09:40:44;;;;;;;3.17;0.50;;;11.60;99.90;;;;;;5069913;28;20435;-62
2022/12/23 09:43:26;;;;;;;0.80;0.40;;;11.70;99.90;;;;;;5070438;28;20940;-62
2022/12/23 09:46:05;;;;;;;0.80;0.40;;;11.70;99.90;;;;;;5071099;28;20415;-62
2022/12/23 09:48:37;;;;;;;1.20;0.47;;;11.70;99.90;;;;;;5072145;28;20419;-63
2022/12/23 09:51:06;;;;;;;1.70;0.40;;;11.70;99.90;;;;;;5069277;28;20804;-63
2022/12/23 09:53:45;;;;;;;0.75;0.40;;;11.70;99.90;;;;;;5068299;28;20677;-63
2022/12/23 09:56:19;;;;;;;0.65;0.40;;;11.70;99.90;;;;;;5062134;28;20830;-61
2022/12/23 09:58:52;;;;;;;0.60;0.40;;;11.70;99.90;;;;;;5069849;28;20506;-60
2022/12/23 10:01:30;;;;;;;0.90;0.40;;;11.70;99.90;;;;;;5071452;28;20435;-61
2022/12/23 10:04:27;;;;;;;1.40;0.43;;;11.70;99.90;;;;;;5069646;28;20511;-61
2022/12/23 10:07:11;;;;;;;0.75;0.40;;;11.70;99.90;;;;;;5065253;28;21017;-60
2022/12/23 10:09:41;;;;;;;1.50;0.40;;;11.70;99.90;;;;;;5070753;28;20540;-60
2022/12/23 10:12:15;;;;;;;0.80;0.40;;;11.70;99.90;;;;;;5068458;28;20572;-61
2022/12/23 10:14:45;;;;;;;0.60;0.40;;;11.70;99.90;;;;;;5065399;28;20510;-61
2022/12/23 10:17:20;;;;;;;0.90;0.40;;;11.70;99.90;;;;;;5066941;28;20463;-60
2022/12/23 10:19:49;;;;;;;0.73;0.38;;;11.70;99.90;;;;;;5071926;28;20658;-61
2022/12/23 10:22:20;;;;;;;0.60;0.30;;;11.80;99.90;;;;;;5070940;28;20430;-61
2022/12/23 10:24:49;;;;;;;0.60;0.30;;;11.80;99.90;;;;;;5068590;28;20680;-61
2022/12/23 10:27:25;;;;;;;0.77;0.40;;;11.80;99.90;;;;;;5069456;28;20530;-61
2022/12/23 10:29:52;;;;;;;1.30;0.40;;;11.90;99.90;;;;;;5069833;28;20818;-61
2022/12/23 10:32:29;;;;;;;0.55;0.30;;;11.90;99.90;;;;;;5071548;28;20667;-62
2022/12/23 10:35:05;;;;;;;0.40;0.30;;;11.90;99.90;;;;;;5071265;28;20451;-62
2022/12/23 10:37:38;;;;;;;0.50;0.30;;;12.00;99.90;;;;;;5069859;28;20819;-60
2022/12/23 10:40:14;;;;;;;0.53;0.30;;;12.00;99.90;;;;;;5071861;28;20494;-61
2022/12/23 10:42:48;;;;;;;0.50;0.30;;;12.10;99.90;;;;;;5073152;28;20612;-61
2022/12/23 10:45:39;;;;;;;0.85;0.30;;;12.10;99.90;;;;;;5073796;28;20509;-61
2022/12/23 10:48:22;;;;;;;1.05;0.40;;;12.10;99.90;;;;;;5069793;28;20799;-62
2022/12/23 10:50:58;;;;;;;0.50;0.30;;;12.20;99.90;;;;;;5070881;28;20543;-61
2022/12/23 10:53:37;;;;;;;0.70;0.30;;;12.30;99.90;;;;;;5074212;28;20502;-63
2022/12/23 10:56:05;;;;;;;0.85;0.40;;;12.30;99.90;;;;;;5062539;28;20424;-63
2022/12/23 10:58:35;;;;;;;1.10;0.40;;;12.20;99.90;;;;;;5053853;28;20876;-64
2022/12/23 11:01:06;;;;;;;1.00;0.30;;;12.20;99.90;;;;;;5070420;28;20502;-63
2022/12/23 11:03:40;;;;;;;0.40;0.30;;;12.20;99.90;;;;;;5074187;28;20506;-60
2022/12/23 11:06:11;;;;;;;0.47;0.20;;;12.20;99.90;;;;;;5073363;28;20451;-61
2022/12/23 11:08:39;;;;;;;0.80;0.30;;;12.20;99.90;;;;;;5073358;28;20452;-60
2022/12/23 11:11:07;;;;;;;0.80;0.40;;;12.20;99.90;;;;;;5074677;28;20522;-61
2022/12/23 11:13:37;;;;;;;0.50;0.30;;;12.30;99.90;;;;;;5072535;28;20515;-60
2022/12/23 11:16:21;;;;;;;1.00;0.30;;;12.30;99.90;;;;;;5071917;28;20535;-60
2022/12/23 11:18:59;;;;;;;0.90;0.30;;;12.30;99.90;;;;;;5069917;28;20451;-60
2022/12/23 11:21:28;;;;;;;0.47;0.30;;;12.30;99.90;;;;;;5056719;28;20522;-62
2022/12/23 11:24:17;;;;;;;0.50;0.30;;;12.30;99.90;;;;;;5073812;28;20510;-62
2022/12/23 11:26:45;;;;;;;0.50;0.30;;;12.30;99.90;;;;;;5063978;28;20843;-61
2022/12/23 11:29:23;;;;;;;1.10;0.32;;;12.40;99.90;;;;;;5072837;28;20451;-61
2022/12/23 11:31:51;;;;;;;0.60;0.30;;;12.40;99.90;;;;;;5073275;28;20447;-60
2022/12/23 11:34:22;;;;;;;1.95;0.30;;;12.40;99.90;;;;;;5073410;28;20798;-61
2022/12/23 11:36:54;;;;;;;2.80;1.90;;;12.40;99.90;;;;;;5071457;28;20459;-62
2022/12/23 11:39:26;;;;;;;5.90;3.60;;;12.50;99.90;;;;;;5071161;28;20503;-63
2022/12/23 11:41:56;;;;;;;1.85;0.90;;;12.50;99.90;;;;;;5072407;28;20459;-61
2022/12/23 11:44:27;;;;;;;0.90;0.50;;;12.60;99.90;;;;;;5068337;28;20783;-61
2022/12/23 11:46:54;;;;;;;1.50;0.40;;;12.60;99.90;;;;;;5068921;28;20451;-62
2022/12/23 11:49:26;;;;;;;1.10;0.40;;;12.70;99.90;;;;;;5068655;28;20813;-61
2022/12/23 11:52:02;;;;;;;0.60;0.30;;;12.70;99.90;;;;;;5071884;28;20526;-62
2022/12/23 11:54:29;;;;;;;1.10;0.40;;;12.80;99.90;;;;;;5054883;28;20514;-62
2022/12/23 11:56:58;;;;;;;0.73;0.40;;;12.80;99.90;;;;;;5070550;28;20467;-62
2022/12/23 11:59:32;;;;;;;1.07;0.30;;;12.90;99.90;;;;;;5077356;28;20869;-62
2022/12/23 12:02:02;;;;;;;0.50;0.20;;;12.90;99.90;;;;;;5094237;28;20685;-63
2022/12/23 12:04:34;;;;;;;0.50;0.20;;;12.90;99.90;;;;;;5074021;28;20493;-62
2022/12/23 12:07:03;;;;;;;0.90;0.30;;;12.90;99.90;;;;;;5074465;28;20513;-62
2022/12/23 12:09:31;;;;;;;0.40;0.20;;;12.90;99.90;;;;;;5073394;28;20509;-61
2022/12/23 12:12:05;;;;;;;0.40;0.20;;;12.80;99.90;;;;;;5070931;28;20773;-61
2022/12/23 12:14:40;;;;;;;0.38;0.20;;;12.80;99.90;;;;;;5071571;28;20423;-61
2022/12/23 12:17:16;;;;;;;0.40;0.20;;;12.80;99.90;;;;;;5070352;28;20791;-61
2022/12/23 12:19:56;;;;;;;1.40;0.40;;;12.80;99.90;;;;;;5069433;28;20423;-61
2022/12/23 12:22:37;;;;;;;0.47;0.30;;;12.70;99.90;;;;;;5068449;28;20463;-61
2022/12/23 12:25:16;;;;;;;0.50;0.30;;;12.70;99.90;;;;;;5071508;28;20424;-60
2022/12/23 12:27:47;;;;;;;0.50;0.20;;;12.70;99.90;;;;;;5070885;28;20472;-61
2022/12/23 12:30:18;;;;;;;0.50;0.20;;;12.70;99.90;;;;;;5072078;28;20428;-61
2022/12/23 12:32:53;;;;;;;0.60;0.30;;;12.70;99.90;;;;;;5069321;28;20490;-61
2022/12/23 12:35:29;;;;;;;0.50;0.30;;;12.70;99.90;;;;;;5071764;28;20512;-61
2022/12/23 12:38:02;;;;;;;1.00;0.50;;;12.70;99.90;;;;;;5062033;28;20518;-60
2022/12/23 12:40:36;;;;;;;0.80;0.50;;;12.80;99.90;;;;;;5071176;28;20900;-60
2022/12/23 12:43:14;;;;;;;0.90;0.60;;;12.80;99.90;;;;;;5068886;28;20439;-61
2022/12/23 12:45:47;;;;;;;1.20;0.50;;;12.80;99.90;;;;;;5070054;28;20514;-61
2022/12/23 12:48:32;;;;;;;0.50;0.30;;;12.80;99.90;;;;;;5071406;28;20850;-60
2022/12/23 12:51:05;;;;;;;0.47;0.30;;;12.80;99.90;;;;;;5057195;28;20433;-60
2022/12/23 12:53:33;;;;;;;0.90;0.30;;;12.80;99.90;;;;;;5067698;28;20747;-59
2022/12/23 12:56:08;;;;;;;0.57;0.30;;;12.80;99.90;;;;;;5070723;28;20485;-60
2022/12/23 12:58:35;;;;;;;0.50;0.30;;;12.80;99.90;;;;;;5072333;28;20520;-60
2022/12/23 13:01:17;;;;;;;0.40;0.20;;;12.80;99.90;;;;;;5071202;28;20501;-61
2022/12/23 13:04:08;;;;;;;0.52;0.30;;;12.80;99.90;;;;;;5069540;28;20435;-61
2022/12/23 13:06:44;;;;;;;0.50;0.25;;;12.80;99.90;;;;;;5072788;28;20734;-61
2022/12/23 13:09:20;;;;;;;1.40;0.30;;;12.80;99.90;;;;;;5073938;28;20459;-61
2022/12/23 13:11:54;;;;;;;0.60;0.40;;;12.80;99.90;;;;;;5071824;28;20451;-61
2022/12/23 13:14:29;;;;;;;1.08;0.30;;;12.90;99.90;;;;;;5079006;28;20489;-61
2022/12/23 13:17:04;;;;;;;0.55;0.40;;;12.90;99.90;;;;;;5072271;28;20746;-61
2022/12/23 13:19:38;;;;;;;0.47;0.30;;;12.90;99.90;;;;;;5069326;28;20483;-61
2022/12/23 13:22:10;;;;;;;0.60;0.40;;;12.90;99.90;;;;;;5069867;28;20443;-58
2022/12/23 13:24:51;;;;;;;0.40;0.20;;;12.90;99.90;;;;;;5071890;28;20521;-55
2022/12/23 13:27:23;;;;;;;0.60;0.30;;;12.90;99.90;;;;;;5069937;28;20522;-54
2022/12/23 13:30:02;;;;;;;0.57;0.30;;;12.90;99.90;;;;;;5068019;28;20940;-53
2022/12/23 13:32:59;;;;;;;0.60;0.30;;;12.90;99.90;;;;;;5067960;28;20704;-54
2022/12/23 13:35:40;;;;;;;0.50;0.25;;;12.90;99.90;;;;;;5056963;28;20470;-55
2022/12/23 13:38:25;;;;;;;0.82;0.22;;;12.90;99.90;;;;;;5062509;28;20522;-52